ADDS METAR Data INFO
IDs: Format: Raw Decoded Include TAF

Data at: 0931 UTC 19 Aug 2017

METAR for:KEDC (Austin/Executive Arp, TX, US)
Text:KEDC 190915Z AUTO 00000KT 10SM BKN015 24/22 A3001 RMK AO2
Temperature: 24.0°C ( 75°F)
Dewpoint: 22.0°C ( 72°F) [RH = 89%]
Pressure (altimeter):30.01 inches Hg (1016.3 mb)
Winds:calm
Visibility:10 or more sm (16+ km)
Ceiling:1500 feet AGL
Clouds: broken clouds at 1500 feet AGL
QC Flag:automated observation with no human augmentation